createdAt,value
2023-01-20T00:02:16.693Z,1.82
2023-01-20T00:04:44.026Z,1.80
2023-01-20T00:07:11.598Z,1.76
2023-01-20T00:09:38.901Z,1.73
2023-01-20T00:12:06.359Z,1.69
2023-01-20T00:14:34.525Z,1.70
2023-01-20T00:17:03.955Z,1.63
2023-01-20T00:19:32.771Z,1.64
2023-01-20T00:22:00.110Z,1.65
2023-01-20T00:24:28.661Z,1.63
2023-01-20T00:26:55.938Z,1.61
2023-01-20T00:29:23.212Z,1.60
2023-01-20T00:31:50.991Z,1.57
2023-01-20T00:34:18.787Z,1.60
2023-01-20T00:36:46.137Z,1.60
2023-01-20T00:39:13.500Z,1.62
2023-01-20T00:41:41.911Z,1.59
2023-01-20T00:44:09.255Z,1.58
2023-01-20T00:46:36.545Z,1.47
2023-01-20T00:49:03.928Z,1.56
2023-01-20T00:51:31.295Z,1.65
2023-01-20T00:54:22.181Z,1.70
2023-01-20T00:56:49.478Z,1.66
2023-01-20T00:59:16.762Z,1.64
2023-01-20T01:01:46.174Z,1.64
2023-01-20T01:04:13.563Z,1.57
2023-01-20T01:06:40.788Z,1.67
2023-01-20T01:09:08.121Z,1.65
2023-01-20T01:11:35.448Z,1.62
2023-01-20T01:14:02.776Z,1.59
2023-01-20T01:16:30.034Z,1.57
2023-01-20T01:18:58.435Z,1.59
2023-01-20T01:21:25.984Z,1.41
2023-01-20T01:23:53.691Z,1.55
2023-01-20T01:26:21.670Z,1.59
2023-01-20T01:28:50.001Z,1.56
2023-01-20T01:31:19.038Z,1.52
2023-01-20T01:33:46.332Z,1.51
2023-01-20T01:36:15.724Z,1.29
2023-01-20T01:38:43.872Z,1.14
2023-01-20T01:41:17.067Z,1.37
2023-01-20T01:44:08.840Z,1.45
2023-01-20T01:46:37.049Z,1.25
2023-01-20T01:49:18.241Z,1.45
2023-01-20T01:51:54.906Z,1.46
2023-01-20T01:54:27.565Z,1.48
2023-01-20T01:56:55.344Z,1.46
2023-01-20T01:59:22.699Z,1.36
2023-01-20T02:01:55.439Z,0.99
2023-01-20T02:04:25.491Z,1.01
2023-01-20T02:06:57.629Z,0.98
2023-01-20T02:09:26.455Z,0.80
2023-01-20T02:11:57.659Z,0.70
2023-01-20T02:14:38.781Z,0.69
2023-01-20T02:17:31.809Z,0.70
2023-01-20T02:20:34.794Z,0.64
2023-01-20T02:23:33.438Z,0.50
2023-01-20T02:26:22.190Z,0.52
2023-01-20T02:29:04.667Z,0.55
2023-01-20T02:31:59.984Z,0.54
2023-01-20T02:34:58.782Z,0.77
2023-01-20T02:37:30.189Z,0.70
2023-01-20T02:40:20.478Z,0.79
2023-01-20T02:43:03.443Z,0.68
2023-01-20T02:45:46.139Z,0.72
2023-01-20T02:48:24.618Z,0.84
2023-01-20T02:51:07.787Z,0.82
2023-01-20T02:53:52.585Z,0.82
2023-01-20T02:56:26.255Z,0.84
2023-01-20T02:59:02.138Z,1.05
2023-01-20T03:01:45.912Z,1.25
2023-01-20T03:04:19.074Z,0.94
2023-01-20T03:06:56.941Z,1.20
2023-01-20T03:09:30.507Z,1.38
2023-01-20T03:12:09.583Z,0.94
2023-01-20T03:14:37.113Z,0.77
2023-01-20T03:17:04.661Z,1.10
2023-01-20T03:19:32.024Z,1.30
2023-01-20T03:22:00.387Z,1.30
2023-01-20T03:24:30.400Z,1.36
2023-01-20T03:26:58.846Z,1.37
2023-01-20T03:29:26.172Z,1.49
2023-01-20T03:31:58.299Z,1.59
2023-01-20T03:34:28.303Z,1.45
2023-01-20T03:36:56.859Z,1.49
2023-01-20T03:39:25.239Z,1.47
2023-01-20T03:42:01.550Z,1.77
2023-01-20T03:44:38.482Z,1.67
2023-01-20T03:47:30.755Z,1.61
2023-01-20T03:50:17.059Z,1.55
2023-01-20T03:52:59.630Z,1.36
2023-01-20T03:55:43.281Z,1.11
2023-01-20T03:58:15.778Z,1.49
2023-01-20T04:00:46.575Z,1.50
2023-01-20T04:03:22.733Z,1.67
2023-01-20T04:05:52.296Z,1.73
2023-01-20T04:08:22.747Z,1.63
2023-01-20T04:10:51.745Z,1.70
2023-01-20T04:13:19.116Z,1.73
2023-01-20T04:15:46.735Z,1.69
2023-01-20T04:18:25.406Z,1.64
2023-01-20T04:21:00.467Z,1.63
2023-01-20T04:23:36.977Z,1.62
2023-01-20T04:26:04.457Z,1.60
2023-01-20T04:28:32.639Z,1.57
2023-01-20T04:31:00.028Z,1.27
2023-01-20T04:33:28.993Z,1.50
2023-01-20T04:35:57.349Z,1.50
2023-01-20T04:38:24.629Z,1.58
2023-01-20T04:40:54.611Z,1.54
2023-01-20T04:43:21.814Z,1.11
2023-01-20T04:45:48.931Z,0.85
2023-01-20T04:48:16.695Z,0.91
2023-01-20T04:50:46.192Z,0.96
2023-01-20T04:53:16.954Z,0.82
2023-01-20T04:55:44.291Z,1.06
2023-01-20T04:58:15.694Z,1.12
2023-01-20T05:00:43.748Z,1.09
2023-01-20T05:03:11.199Z,1.44
2023-01-20T05:05:38.458Z,1.51
2023-01-20T05:08:06.107Z,1.52
2023-01-20T05:10:34.006Z,1.43
2023-01-20T05:13:02.310Z,1.15
2023-01-20T05:15:29.651Z,1.50
2023-01-20T05:17:57.030Z,1.59
2023-01-20T05:20:24.352Z,1.59
2023-01-20T05:22:53.876Z,1.61
2023-01-20T05:25:21.185Z,1.65
2023-01-20T05:27:49.089Z,1.60
2023-01-20T05:30:18.410Z,1.60
2023-01-20T05:32:48.825Z,1.61
2023-01-20T05:35:17.085Z,1.62
2023-01-20T05:37:45.927Z,1.59
2023-01-20T05:40:13.995Z,1.59
2023-01-20T05:42:42.028Z,1.60
2023-01-20T05:45:10.770Z,1.56
2023-01-20T05:47:38.500Z,1.56
2023-01-20T05:50:06.626Z,1.62
2023-01-20T05:52:34.694Z,1.57
2023-01-20T05:55:02.160Z,1.51
2023-01-20T05:57:29.773Z,1.55
2023-01-20T05:59:57.167Z,1.57
2023-01-20T06:02:25.172Z,1.54
2023-01-20T06:04:53.309Z,1.49
2023-01-20T06:07:20.662Z,1.53
2023-01-20T06:09:52.095Z,1.54
2023-01-20T06:12:19.420Z,1.55
2023-01-20T06:14:46.719Z,1.58
2023-01-20T06:17:14.035Z,1.52
2023-01-20T06:19:41.693Z,1.43
2023-01-20T06:22:14.297Z,1.51
2023-01-20T06:24:41.674Z,1.54
2023-01-20T06:27:13.581Z,1.57
2023-01-20T06:29:41.244Z,1.57
2023-01-20T06:32:08.636Z,1.51
2023-01-20T06:34:36.918Z,1.52
2023-01-20T06:37:04.385Z,1.48
2023-01-20T06:39:31.909Z,1.42
2023-01-20T06:42:00.182Z,1.44
2023-01-20T06:44:27.710Z,1.43
2023-01-20T06:46:55.472Z,1.42
2023-01-20T06:49:23.221Z,1.47
2023-01-20T06:51:52.689Z,1.48
2023-01-20T06:54:20.464Z,1.46
2023-01-20T06:56:47.896Z,1.47
2023-01-20T06:59:15.375Z,1.50
2023-01-20T07:01:42.853Z,1.49
2023-01-20T07:04:14.689Z,1.50
2023-01-20T07:06:42.688Z,1.44
2023-01-20T07:09:12.870Z,1.42
2023-01-20T07:11:40.825Z,1.42
2023-01-20T07:14:08.601Z,1.40
2023-01-20T07:16:36.805Z,1.37
2023-01-20T07:19:06.133Z,1.32
2023-01-20T07:21:33.591Z,1.34
2023-01-20T07:24:02.081Z,1.26
2023-01-20T07:26:30.622Z,1.27
2023-01-20T07:28:59.064Z,1.21
2023-01-20T07:31:28.644Z,1.12
2023-01-20T07:33:56.752Z,1.12
2023-01-20T07:36:24.522Z,1.08
2023-01-20T07:38:53.313Z,1.07
2023-01-20T07:41:21.921Z,1.03
2023-01-20T07:43:51.234Z,0.96
2023-01-20T07:46:19.453Z,0.94
2023-01-20T07:48:46.961Z,0.90
2023-01-20T07:51:15.710Z,0.91
2023-01-20T07:53:47.890Z,0.89
2023-01-20T07:56:27.694Z,0.87
2023-01-20T07:58:55.628Z,0.84
2023-01-20T08:01:26.051Z,0.78
2023-01-20T08:03:53.825Z,0.76
2023-01-20T08:06:23.684Z,0.75
2023-01-20T08:08:51.639Z,0.76
2023-01-20T08:11:20.940Z,0.71
2023-01-20T08:13:48.747Z,0.73
2023-01-20T08:16:17.560Z,0.69
2023-01-20T08:18:45.767Z,0.72
2023-01-20T08:21:22.642Z,0.68
2023-01-20T08:23:50.434Z,0.67
2023-01-20T08:26:19.471Z,0.66
2023-01-20T08:28:47.397Z,0.63
2023-01-20T08:31:18.154Z,0.65
2023-01-20T08:33:46.818Z,0.67
2023-01-20T08:36:26.480Z,0.69
2023-01-20T08:38:55.438Z,0.71
2023-01-20T08:41:27.255Z,0.71
2023-01-20T08:43:55.056Z,0.76
2023-01-20T08:46:22.914Z,0.77
2023-01-20T08:48:50.740Z,0.86
2023-01-20T08:51:21.742Z,0.86
2023-01-20T08:53:49.606Z,0.88
2023-01-20T08:56:17.458Z,0.94
2023-01-20T08:58:45.205Z,0.94
2023-01-20T09:01:15.301Z,0.93
2023-01-20T09:03:49.408Z,0.98
2023-01-20T09:06:27.361Z,0.96
2023-01-20T09:08:55.187Z,1.04
2023-01-20T09:11:25.080Z,1.10
2023-01-20T09:13:52.645Z,1.11
2023-01-20T09:16:20.032Z,1.16
2023-01-20T09:18:47.389Z,1.13
2023-01-20T09:21:14.747Z,1.14
2023-01-20T09:23:43.403Z,1.15
2023-01-20T09:26:10.699Z,1.15
2023-01-20T09:28:37.989Z,1.21
2023-01-20T09:31:08.733Z,1.29
2023-01-20T09:33:39.228Z,1.35
2023-01-20T09:36:08.985Z,1.30
2023-01-20T09:38:54.695Z,1.35
2023-01-20T09:41:46.655Z,1.48
2023-01-20T09:44:42.759Z,1.47
2023-01-20T09:47:21.540Z,1.46
2023-01-20T09:50:32.342Z,1.40
2023-01-20T09:53:15.660Z,1.36
2023-01-20T09:55:58.588Z,1.36
2023-01-20T09:58:32.027Z,1.47
2023-01-20T10:01:24.616Z,1.52
2023-01-20T10:04:25.487Z,1.57
2023-01-20T10:07:09.719Z,1.72
2023-01-20T10:09:46.231Z,1.68
2023-01-20T10:12:16.620Z,1.63
2023-01-20T10:15:07.497Z,1.65
2023-01-20T10:17:47.502Z,1.71
2023-01-20T10:20:20.311Z,1.68
2023-01-20T10:23:21.532Z,1.65
2023-01-20T10:26:05.150Z,1.58
2023-01-20T10:28:59.628Z,1.50
2023-01-20T10:31:38.013Z,1.38
2023-01-20T10:34:12.959Z,1.45
2023-01-20T10:36:44.248Z,1.55
2023-01-20T10:39:25.198Z,1.45
2023-01-20T10:42:00.146Z,1.46
2023-01-20T10:44:27.488Z,1.54
2023-01-20T10:47:25.808Z,1.31
2023-01-20T10:50:14.872Z,1.28
2023-01-20T10:53:00.814Z,1.28
2023-01-20T10:55:40.155Z,1.28
2023-01-20T10:58:24.251Z,1.40
2023-01-20T11:00:51.977Z,1.36
2023-01-20T11:03:21.737Z,1.25
2023-01-20T11:05:51.602Z,1.25
2023-01-20T11:08:26.158Z,1.14
2023-01-20T11:10:57.013Z,1.12
2023-01-20T11:13:24.668Z,1.09
2023-01-20T11:15:56.435Z,1.03
2023-01-20T11:18:27.960Z,0.99
2023-01-20T11:21:05.748Z,1.05
2023-01-20T11:23:38.540Z,1.03
2023-01-20T11:26:17.814Z,1.03
2023-01-20T11:29:09.343Z,0.98
2023-01-20T11:31:42.504Z,1.04
2023-01-20T11:34:25.883Z,1.06
2023-01-20T11:37:05.385Z,1.02
2023-01-20T11:39:35.704Z,1.08
2023-01-20T11:42:16.841Z,1.05
2023-01-20T11:44:50.116Z,1.05
2023-01-20T11:47:32.445Z,1.08
2023-01-20T11:50:08.509Z,1.11
2023-01-20T11:52:42.652Z,1.15
2023-01-20T11:55:14.373Z,1.19
2023-01-20T11:57:57.609Z,1.14
2023-01-20T12:00:41.251Z,1.16
2023-01-20T12:03:36.154Z,1.03
2023-01-20T12:06:17.398Z,1.21
2023-01-20T12:08:56.664Z,1.28
2023-01-20T12:11:52.215Z,1.17
2023-01-20T12:14:42.354Z,1.16
2023-01-20T12:17:35.569Z,1.08
2023-01-20T12:20:09.373Z,1.00
2023-01-20T12:23:07.515Z,0.96
2023-01-20T12:25:43.429Z,0.95
2023-01-20T12:28:33.469Z,0.94
2023-01-20T12:31:13.078Z,1.03
2023-01-20T12:33:44.228Z,1.04
2023-01-20T12:36:35.999Z,1.06
2023-01-20T12:39:16.911Z,1.07
2023-01-20T12:42:05.976Z,1.07
2023-01-20T12:44:39.713Z,1.00
2023-01-20T12:47:43.709Z,1.06
2023-01-20T12:50:48.428Z,1.05
2023-01-20T12:53:38.980Z,0.99
2023-01-20T12:56:14.820Z,0.98
2023-01-20T12:59:01.693Z,1.00
2023-01-20T13:01:50.971Z,0.97
2023-01-20T13:04:58.262Z,0.95
2023-01-20T13:07:59.720Z,0.97
2023-01-20T13:10:46.673Z,0.93
2023-01-20T13:13:55.929Z,0.95
2023-01-20T13:16:31.663Z,0.99
2023-01-20T13:19:10.408Z,0.97
2023-01-20T13:21:37.753Z,0.95
2023-01-20T13:24:06.273Z,0.93
2023-01-20T13:26:36.098Z,0.89
2023-01-20T13:29:03.501Z,0.89
2023-01-20T13:31:36.944Z,0.95
2023-01-20T13:34:22.564Z,1.00
2023-01-20T13:37:07.299Z,0.98
2023-01-20T13:39:46.790Z,0.92
2023-01-20T13:42:37.014Z,0.90
2023-01-20T13:45:13.866Z,0.91
2023-01-20T13:47:50.539Z,0.88
2023-01-20T13:50:36.440Z,0.86
2023-01-20T13:53:21.755Z,0.88
2023-01-20T13:55:49.019Z,0.87
2023-01-20T13:58:16.832Z,0.91
2023-01-20T14:00:44.717Z,0.90
2023-01-20T14:03:20.074Z,0.86
2023-01-20T14:05:54.764Z,0.90
2023-01-20T14:08:23.785Z,0.90
2023-01-20T14:11:02.863Z,0.94
2023-01-20T14:13:30.181Z,0.89
2023-01-20T14:15:57.555Z,0.93
2023-01-20T14:18:26.875Z,0.91
2023-01-20T14:20:58.649Z,0.90
2023-01-20T14:23:27.570Z,0.88
2023-01-20T14:26:04.342Z,0.84
2023-01-20T14:28:32.303Z,0.89
2023-01-20T14:31:13.374Z,0.88
2023-01-20T14:34:25.683Z,0.93
2023-01-20T14:36:53.987Z,0.99
2023-01-20T14:39:26.845Z,0.89
2023-01-20T14:41:59.254Z,0.92
2023-01-20T14:44:32.689Z,0.91
2023-01-20T14:47:02.904Z,0.94
2023-01-20T14:49:39.527Z,0.86
2023-01-20T14:52:08.637Z,0.83
2023-01-20T14:54:44.915Z,0.86
2023-01-20T14:57:27.595Z,0.79
2023-01-20T15:00:20.751Z,0.81
2023-01-20T15:03:14.326Z,0.79
2023-01-20T15:06:10.978Z,0.73
2023-01-20T15:08:38.331Z,0.72
2023-01-20T15:11:11.803Z,0.69
2023-01-20T15:13:40.209Z,0.71
2023-01-20T15:16:17.656Z,0.66
2023-01-20T15:19:17.706Z,0.64
2023-01-20T15:21:50.761Z,0.61
2023-01-20T15:24:32.645Z,0.61
2023-01-20T15:27:01.969Z,0.60
2023-01-20T15:29:32.383Z,0.63
2023-01-20T15:32:02.445Z,0.62
2023-01-20T15:34:29.944Z,0.62
2023-01-20T15:36:57.464Z,0.61
2023-01-20T15:39:30.681Z,0.60
2023-01-20T15:41:58.525Z,0.61
2023-01-20T15:44:26.985Z,0.58
2023-01-20T15:46:57.352Z,0.62
2023-01-20T15:49:25.611Z,0.62
2023-01-20T15:51:53.122Z,0.60
2023-01-20T15:54:20.611Z,0.61
2023-01-20T15:56:47.937Z,0.61
2023-01-20T15:59:17.551Z,0.62
2023-01-20T16:01:50.227Z,0.58
2023-01-20T16:04:17.961Z,0.59
2023-01-20T16:06:45.530Z,0.60
2023-01-20T16:09:38.753Z,0.59
2023-01-20T16:12:06.292Z,0.56
2023-01-20T16:14:33.633Z,0.53
2023-01-20T16:17:01.077Z,0.52
2023-01-20T16:19:28.336Z,0.52
2023-01-20T16:21:55.676Z,0.51
2023-01-20T16:24:23.077Z,0.46
2023-01-20T16:26:50.690Z,0.49
2023-01-20T16:29:18.067Z,0.46
2023-01-20T16:31:45.672Z,0.45
2023-01-20T16:34:13.084Z,0.44
2023-01-20T16:36:40.507Z,0.48
2023-01-20T16:39:07.973Z,0.45
2023-01-20T16:41:36.638Z,0.44
2023-01-20T16:44:04.717Z,0.46
2023-01-20T16:46:33.471Z,0.48
2023-01-20T16:49:02.128Z,0.49
2023-01-20T16:51:31.404Z,0.47
2023-01-20T16:53:59.621Z,0.44
2023-01-20T16:56:32.156Z,0.43
2023-01-20T16:59:01.870Z,0.47
2023-01-20T17:01:30.644Z,0.44
2023-01-20T17:04:00.931Z,0.45
2023-01-20T17:06:32.008Z,0.46
2023-01-20T17:09:01.432Z,0.47
2023-01-20T17:11:33.455Z,0.43
2023-01-20T17:14:05.637Z,0.41
2023-01-20T17:16:33.833Z,0.45
2023-01-20T17:19:01.647Z,0.45
2023-01-20T17:21:30.961Z,0.44
2023-01-20T17:24:03.838Z,0.41
2023-01-20T17:26:31.808Z,0.43
2023-01-20T17:29:04.322Z,0.40
2023-01-20T17:31:34.583Z,0.42
2023-01-20T17:34:05.378Z,0.39
2023-01-20T17:36:36.068Z,0.41
2023-01-20T17:39:05.341Z,0.42
2023-01-20T17:41:33.984Z,0.40
2023-01-20T17:44:01.365Z,0.41
2023-01-20T17:46:30.504Z,0.42
2023-01-20T17:49:06.805Z,0.41
2023-01-20T17:51:34.530Z,0.41
2023-01-20T17:54:03.924Z,0.39
2023-01-20T17:56:31.843Z,0.35
2023-01-20T17:58:59.173Z,0.39
2023-01-20T18:01:29.025Z,0.40
2023-01-20T18:03:56.931Z,0.40
2023-01-20T18:06:25.865Z,0.41
2023-01-20T18:08:58.461Z,0.39
2023-01-20T18:11:27.877Z,0.42
2023-01-20T18:13:57.061Z,0.39
2023-01-20T18:16:28.141Z,0.39
2023-01-20T18:18:58.880Z,0.40
2023-01-20T18:21:32.205Z,0.41
2023-01-20T18:24:01.368Z,0.40
2023-01-20T18:26:31.861Z,0.39
2023-01-20T18:29:07.527Z,0.45
2023-01-20T18:31:35.655Z,0.35
2023-01-20T18:34:06.227Z,0.38
2023-01-20T18:36:42.277Z,0.38
2023-01-20T18:39:14.470Z,0.37
2023-01-20T18:41:42.192Z,0.40
2023-01-20T18:44:09.569Z,0.43
2023-01-20T18:46:37.485Z,0.42
2023-01-20T18:49:07.415Z,0.39
2023-01-20T18:51:36.018Z,0.41
2023-01-20T18:54:10.754Z,0.37
2023-01-20T18:56:38.643Z,0.41
2023-01-20T18:59:07.408Z,0.40
2023-01-20T19:01:37.344Z,0.40
2023-01-20T19:04:04.880Z,0.42
2023-01-20T19:06:37.024Z,0.37
2023-01-20T19:09:05.711Z,0.35
2023-01-20T19:11:36.487Z,0.36
2023-01-20T19:14:04.791Z,0.37
2023-01-20T19:16:36.853Z,0.37
2023-01-20T19:19:07.325Z,0.38
2023-01-20T19:21:36.571Z,0.37
2023-01-20T19:24:06.229Z,0.42
2023-01-20T19:26:39.133Z,0.41
2023-01-20T19:29:10.740Z,0.43
2023-01-20T19:31:40.065Z,0.42
2023-01-20T19:34:09.203Z,0.43
2023-01-20T19:36:37.103Z,0.41
2023-01-20T19:39:04.902Z,0.39
2023-01-20T19:41:34.473Z,0.36
2023-01-20T19:44:04.570Z,0.38
2023-01-20T19:46:33.106Z,0.37
2023-01-20T19:49:02.515Z,0.34
2023-01-20T19:51:31.658Z,0.34
2023-01-20T19:54:01.592Z,0.36
2023-01-20T19:56:31.803Z,0.37
2023-01-20T19:59:03.250Z,0.37
2023-01-20T20:01:33.321Z,0.41
2023-01-20T20:04:05.929Z,0.42
2023-01-20T20:06:46.956Z,0.42
2023-01-20T20:09:21.280Z,0.41
2023-01-20T20:11:49.625Z,0.42
2023-01-20T20:14:19.132Z,0.39
2023-01-20T20:16:49.015Z,0.36
2023-01-20T20:19:17.976Z,0.37
2023-01-20T20:21:45.711Z,0.32
2023-01-20T20:24:15.100Z,0.28
2023-01-20T20:26:44.573Z,0.26
2023-01-20T20:29:14.082Z,0.26
2023-01-20T20:31:41.705Z,0.26
2023-01-20T20:34:13.063Z,0.25
2023-01-20T20:36:40.425Z,0.25
2023-01-20T20:39:08.318Z,0.26
2023-01-20T20:41:36.679Z,0.26
2023-01-20T20:44:04.701Z,0.25
2023-01-20T20:46:32.406Z,0.26
2023-01-20T20:49:01.055Z,0.25
2023-01-20T20:51:32.000Z,0.27
2023-01-20T20:54:01.548Z,0.29
2023-01-20T20:56:32.971Z,0.25
2023-01-20T20:59:03.068Z,0.28
2023-01-20T21:01:34.672Z,0.20
2023-01-20T21:04:03.674Z,0.24
2023-01-20T21:06:31.888Z,0.23
2023-01-20T21:09:00.089Z,0.28
2023-01-20T21:11:28.545Z,0.27
2023-01-20T21:13:56.263Z,0.20
2023-01-20T21:16:24.326Z,0.20
2023-01-20T21:18:53.746Z,0.18
2023-01-20T21:21:21.239Z,0.19
2023-01-20T21:23:57.489Z,0.21
2023-01-20T21:26:29.627Z,0.21
2023-01-20T21:29:00.359Z,0.19
2023-01-20T21:31:27.839Z,0.24
2023-01-20T21:34:00.412Z,0.18
2023-01-20T21:36:29.444Z,0.14
2023-01-20T21:38:58.444Z,0.16
2023-01-20T21:41:25.788Z,0.13
2023-01-20T21:44:11.666Z,0.18
2023-01-20T21:46:40.643Z,0.22
2023-01-20T21:49:27.213Z,0.18
2023-01-20T21:52:14.076Z,0.20
2023-01-20T21:54:41.974Z,0.14
2023-01-20T21:57:10.188Z,0.16
2023-01-20T21:59:37.489Z,0.20
2023-01-20T22:02:05.456Z,0.22
2023-01-20T22:04:33.154Z,0.24
2023-01-20T22:07:00.416Z,0.21
2023-01-20T22:09:27.625Z,0.21
2023-01-20T22:11:55.049Z,0.20
2023-01-20T22:14:22.333Z,0.21
2023-01-20T22:16:49.688Z,0.17
2023-01-20T22:19:16.994Z,0.16
2023-01-20T22:21:44.325Z,0.15
2023-01-20T22:24:12.183Z,0.14
2023-01-20T22:26:39.844Z,0.15
2023-01-20T22:29:07.232Z,0.06
2023-01-20T22:31:34.621Z,0.15
2023-01-20T22:34:06.359Z,0.15
2023-01-20T22:36:34.055Z,0.06
2023-01-20T22:39:01.956Z,0.08
2023-01-20T22:41:29.538Z,0.07
2023-01-20T22:43:57.274Z,0.11
2023-01-20T22:46:26.123Z,0.15
2023-01-20T22:48:56.043Z,0.17
2023-01-20T22:51:24.488Z,0.12
2023-01-20T22:53:56.399Z,0.12
2023-01-20T22:56:29.489Z,0.19
2023-01-20T22:58:57.892Z,0.20
2023-01-20T23:01:35.813Z,0.20
2023-01-20T23:04:05.823Z,0.16
2023-01-20T23:06:34.463Z,0.23
2023-01-20T23:09:08.461Z,0.26
2023-01-20T23:11:38.305Z,0.14
2023-01-20T23:14:05.882Z,0.19
2023-01-20T23:16:33.090Z,0.20
2023-01-20T23:19:00.458Z,0.13
2023-01-20T23:21:27.804Z,0.15
2023-01-20T23:23:55.169Z,0.12
2023-01-20T23:26:24.906Z,0.12
2023-01-20T23:28:53.743Z,0.11
2023-01-20T23:31:23.722Z,0.09
2023-01-20T23:33:51.334Z,0.18
2023-01-20T23:36:27.726Z,0.18
2023-01-20T23:38:56.127Z,0.22
2023-01-20T23:41:24.220Z,0.21
2023-01-20T23:43:51.688Z,0.25
2023-01-20T23:46:19.067Z,0.29
2023-01-20T23:48:47.213Z,0.38
2023-01-20T23:51:15.208Z,0.36
2023-01-20T23:53:43.130Z,0.48
2023-01-20T23:56:22.133Z,0.41
2023-01-20T23:58:50.204Z,0.37
